Terminal Aerodrome Forecast
Issued by NWS

Home | Current Version | Previous Version | Graphics & Text | Print | Product List | Glossary On
Versions: 1 2 3 4 5 6 7 8 9 10 11 12 13 14 15 16 17 18 19 20 21 22 23 24 25 26 27
696
FTUS43 KICT 250522
TAFHUT
TAF
KHUT 250522Z 2506/2606 04016G23KT 6SM -TSRA SCT020 OVC040CB
      TEMPO 2506/2508 VRB20G35KT 3SM +TSRA OVC020CB
     FM250800 15014G20KT P6SM VCTS BKN020CB
     FM251600 18017G24KT P6SM BKN035=

USA.gov is the U.S. government's official web portal to all federal, state and local government web resources and services.